Time;durP1;ratioP1;P1;durP2;ratioP2;P2;SDS_P1;SDS_P2;PMS_P1;PMS_P2;Temp;Humidity;BMP_temperature;BMP_pressure;BME280_temperature;BME280_humidity;BME280_pressure;Samples;Min_cycle;Max_cycle;Signal;HPM_P1;HPM_P2
2021/01/21 00:01:00;;;;;;;4.43;2.20;;;8.20;67.70;;;;;;5092047;27;20040;-70
2021/01/21 00:03:26;;;;;;;4.63;2.72;;;8.20;68.30;;;;;;5094227;27;20059;-71
2021/01/21 00:05:52;;;;;;;5.00;2.15;;;8.20;67.70;;;;;;5093294;28;20047;-71
2021/01/21 00:08:19;;;;;;;3.05;2.22;;;8.20;67.40;;;;;;5095358;28;20052;-71
2021/01/21 00:10:45;;;;;;;4.45;2.40;;;8.20;67.40;;;;;;5098446;28;20052;-71
2021/01/21 00:13:11;;;;;;;4.15;2.20;;;8.20;68.50;;;;;;5093876;28;20471;-70
2021/01/21 00:15:38;;;;;;;4.32;2.40;;;8.20;67.80;;;;;;5096458;28;20083;-71
2021/01/21 00:18:04;;;;;;;3.55;1.88;;;8.20;67.30;;;;;;5099841;27;20105;-71
2021/01/21 00:20:31;;;;;;;6.85;2.50;;;8.20;67.50;;;;;;5094871;28;21217;-72
2021/01/21 00:22:57;;;;;;;3.42;2.17;;;8.10;67.70;;;;;;5092140;27;20089;-71
2021/01/21 00:25:25;;;;;;;3.35;2.15;;;8.20;67.60;;;;;;5098862;28;20056;-72
2021/01/21 00:27:51;;;;;;;3.55;2.35;;;8.20;67.40;;;;;;5100411;28;20059;-72
2021/01/21 00:30:18;;;;;;;6.25;2.90;;;8.20;67.60;;;;;;5094443;27;20539;-71
2021/01/21 00:32:47;;;;;;;8.48;2.58;;;8.20;67.40;;;;;;5091827;27;20475;-71
2021/01/21 00:35:15;;;;;;;8.80;2.42;;;8.20;67.20;;;;;;5091917;27;20055;-70
2021/01/21 00:37:41;;;;;;;5.45;2.30;;;8.20;67.30;;;;;;5090786;28;20120;-71
2021/01/21 00:40:10;;;;;;;4.05;2.35;;;8.30;67.10;;;;;;5092978;28;20071;-72
2021/01/21 00:42:37;;;;;;;6.43;2.47;;;8.30;67.40;;;;;;5092405;28;20047;-70
2021/01/21 00:45:04;;;;;;;3.47;1.95;;;8.30;66.90;;;;;;5094219;28;20044;-71
2021/01/21 00:47:30;;;;;;;4.60;1.77;;;8.40;66.50;;;;;;5091907;27;20051;-72
2021/01/21 00:49:57;;;;;;;4.57;2.00;;;8.40;66.60;;;;;;5101149;28;20040;-71
2021/01/21 00:52:26;;;;;;;4.15;2.08;;;8.40;66.50;;;;;;5092952;28;20075;-72
2021/01/21 00:54:54;;;;;;;;;;;8.40;66.60;;;;;;5095001;28;20376;-71
2021/01/21 00:57:21;;;;;;;3.50;2.00;;;8.30;66.70;;;;;;5100115;28;19928;-71
2021/01/21 00:59:50;;;;;;;2.55;1.70;;;8.30;67.10;;;;;;5092525;28;20051;-72
2021/01/21 01:02:16;;;;;;;5.03;2.40;;;8.30;67.30;;;;;;5091310;27;20071;-71
2021/01/21 01:04:45;;;;;;;2.67;1.75;;;8.30;67.10;;;;;;5099210;28;20062;-70
2021/01/21 01:07:11;;;;;;;6.13;2.33;;;8.30;67.20;;;;;;5091475;28;20466;-71
2021/01/21 01:09:38;;;;;;;3.85;2.00;;;8.30;67.30;;;;;;5092857;27;22154;-71
2021/01/21 01:12:05;;;;;;;4.97;2.17;;;8.30;66.80;;;;;;5090233;28;20055;-71
2021/01/21 01:14:34;;;;;;;6.18;2.20;;;8.30;67.20;;;;;;5094417;28;20080;-70
2021/01/21 01:17:00;;;;;;;4.80;2.10;;;8.30;67.00;;;;;;5092174;28;20090;-70
2021/01/21 01:19:27;;;;;;;3.85;2.00;;;8.30;66.80;;;;;;5094067;27;20049;-72
2021/01/21 01:21:53;;;;;;;3.75;2.10;;;8.40;66.90;;;;;;5092970;28;20149;-72
2021/01/21 01:24:21;;;;;;;5.88;2.22;;;8.40;67.10;;;;;;5093957;28;20410;-71
2021/01/21 01:26:49;;;;;;;4.93;2.17;;;8.40;67.50;;;;;;5090804;28;20372;-70
2021/01/21 01:29:16;;;;;;;4.57;2.10;;;8.30;67.60;;;;;;5093624;28;20035;-71
2021/01/21 01:31:42;;;;;;;4.35;2.10;;;8.20;67.40;;;;;;5093191;27;20152;-71
2021/01/21 01:34:09;;;;;;;3.85;2.10;;;8.20;67.80;;;;;;5093754;28;20134;-71
2021/01/21 01:36:36;;;;;;;4.15;1.85;;;8.10;68.00;;;;;;5100049;27;20058;-71
2021/01/21 01:39:03;;;;;;;3.42;1.67;;;8.10;68.20;;;;;;5109428;28;20035;-72
2021/01/21 01:41:29;;;;;;;6.22;2.10;;;8.10;68.80;;;;;;5104804;28;20398;-72
2021/01/21 01:43:55;;;;;;;2.58;1.40;;;8.10;68.90;;;;;;5107531;27;20075;-72
2021/01/21 01:46:27;;;;;;;3.17;1.92;;;8.00;68.70;;;;;;5107492;28;20132;-72
2021/01/21 01:49:00;;;;;;;2.88;1.60;;;8.00;69.20;;;;;;5107712;28;20130;-73
2021/01/21 01:51:27;;;;;;;3.95;1.80;;;8.00;69.20;;;;;;5109185;28;20447;-72
2021/01/21 01:53:54;;;;;;;3.72;1.83;;;8.00;68.90;;;;;;5105612;28;20130;-73
2021/01/21 01:56:20;;;;;;;5.63;1.80;;;8.10;68.70;;;;;;5104966;28;20067;-72
2021/01/21 01:58:50;;;;;;;2.70;1.40;;;8.10;68.20;;;;;;5104067;28;20105;-72
2021/01/21 02:01:18;;;;;;;3.17;1.60;;;8.20;67.60;;;;;;5107605;27;20510;-73
2021/01/21 02:03:44;;;;;;;5.35;1.70;;;8.20;67.50;;;;;;5108544;28;20108;-72
2021/01/21 02:06:10;;;;;;;2.15;1.40;;;8.20;67.60;;;;;;5107752;27;20067;-72
2021/01/21 02:08:37;;;;;;;2.63;1.75;;;8.40;67.40;;;;;;5110454;27;20494;-70
2021/01/21 02:11:14;;;;;;;3.17;1.70;;;8.30;67.00;;;;;;5101683;28;20483;-71
2021/01/21 02:13:51;;;;;;;6.72;2.00;;;8.40;66.90;;;;;;5104129;28;20092;-71
2021/01/21 02:16:38;;;;;;;2.35;1.42;;;8.40;66.50;;;;;;5105805;28;20069;-71
2021/01/21 02:19:40;;;;;;;2.28;1.42;;;8.40;66.90;;;;;;5108194;28;20453;-71
2021/01/21 02:22:25;;;;;;;4.57;1.95;;;8.40;66.40;;;;;;5090075;28;20086;-71
2021/01/21 02:25:15;;;;;;;3.72;1.80;;;8.50;66.00;;;;;;5104107;28;20039;-71
2021/01/21 02:28:08;;;;;;;5.22;1.80;;;8.50;66.30;;;;;;5101616;28;20097;-71
2021/01/21 02:30:49;;;;;;;5.15;1.50;;;8.50;66.00;;;;;;5109126;28;20094;-70
2021/01/21 02:33:36;;;;;;;2.30;1.30;;;8.50;66.20;;;;;;5098814;28;20546;-70
2021/01/21 02:36:06;;;;;;;4.38;1.65;;;8.40;66.20;;;;;;5108726;28;20047;-70
2021/01/21 02:38:36;;;;;;;3.10;1.40;;;8.50;65.80;;;;;;5105203;28;20052;-70
2021/01/21 02:41:03;;;;;;;;;;;8.50;65.70;;;;;;5105479;28;20104;-70
2021/01/21 02:43:30;;;;;;;3.83;1.63;;;8.60;65.60;;;;;;5106492;28;20054;-70
2021/01/21 02:45:56;;;;;;;3.03;1.60;;;8.60;65.30;;;;;;5103627;28;20118;-70
2021/01/21 02:48:22;;;;;;;3.15;1.35;;;8.60;65.10;;;;;;5107229;28;20044;-70
2021/01/21 02:50:59;;;;;;;3.58;1.55;;;8.60;65.20;;;;;;5108007;28;20074;-70
2021/01/21 02:53:26;;;;;;;4.68;1.50;;;8.60;65.20;;;;;;5106933;28;20070;-70
2021/01/21 02:56:06;;;;;;;2.13;1.30;;;8.70;65.10;;;;;;5108882;28;20051;-69
2021/01/21 02:58:35;;;;;;;2.97;1.30;;;8.70;65.20;;;;;;5109573;28;20098;-69
2021/01/21 03:01:04;;;;;;;5.13;1.50;;;8.70;65.00;;;;;;5102040;28;20436;-69
2021/01/21 03:03:32;;;;;;;4.28;1.27;;;8.70;65.50;;;;;;5107940;28;20391;-70
2021/01/21 03:06:02;;;;;;;2.58;1.60;;;8.70;64.50;;;;;;5107103;28;20106;-70
2021/01/21 03:08:31;;;;;;;2.55;1.30;;;8.70;64.40;;;;;;5101641;28;20050;-70
2021/01/21 03:11:13;;;;;;;2.60;1.30;;;8.70;64.60;;;;;;5109882;28;20387;-71
2021/01/21 03:13:43;;;;;;;;;;;8.70;64.70;;;;;;5107344;28;20043;-71
2021/01/21 03:16:09;;;;;;;2.67;1.35;;;8.70;64.80;;;;;;5105891;28;20045;-71
2021/01/21 03:18:36;;;;;;;2.95;1.60;;;8.60;64.70;;;;;;5107991;28;20047;-71
2021/01/21 03:21:03;;;;;;;4.22;1.40;;;8.70;64.80;;;;;;5105962;28;20075;-71
2021/01/21 03:23:29;;;;;;;3.30;1.45;;;8.60;65.20;;;;;;5109336;28;20442;-71
2021/01/21 03:25:56;;;;;;;3.72;1.65;;;8.50;65.10;;;;;;5107468;28;20802;-71
2021/01/21 03:28:22;;;;;;;3.15;1.50;;;8.60;65.00;;;;;;5106798;28;20104;-71
2021/01/21 03:30:48;;;;;;;2.55;1.50;;;8.60;65.20;;;;;;5106279;28;20040;-71
2021/01/21 03:33:15;;;;;;;3.17;1.70;;;8.60;65.10;;;;;;5105456;28;20055;-71
2021/01/21 03:35:41;;;;;;;3.67;1.30;;;8.60;65.40;;;;;;5109731;28;20092;-71
2021/01/21 03:38:07;;;;;;;2.80;1.50;;;8.60;65.30;;;;;;5110954;28;20048;-71
2021/01/21 03:40:34;;;;;;;3.83;1.75;;;8.70;65.20;;;;;;5110161;28;20423;-71
2021/01/21 03:43:00;;;;;;;3.40;1.48;;;8.70;65.40;;;;;;5111670;28;20131;-71
2021/01/21 03:45:26;;;;;;;4.50;2.17;;;8.70;65.20;;;;;;5109209;28;20105;-71
2021/01/21 03:47:52;;;;;;;4.07;1.65;;;8.70;65.20;;;;;;5104480;28;20105;-71
2021/01/21 03:50:20;;;;;;;3.33;1.98;;;8.80;65.00;;;;;;5107519;28;20075;-71
2021/01/21 03:52:46;;;;;;;5.15;2.20;;;8.80;64.90;;;;;;5109300;28;20071;-71
2021/01/21 03:55:12;;;;;;;6.15;2.20;;;8.80;64.70;;;;;;5110325;28;20425;-71
2021/01/21 03:57:39;;;;;;;3.42;2.00;;;8.90;64.30;;;;;;5109754;28;20142;-71
2021/01/21 04:00:05;;;;;;;5.00;2.20;;;9.00;64.30;;;;;;5110159;28;20138;-71
2021/01/21 04:02:32;;;;;;;2.85;1.52;;;8.90;64.20;;;;;;5104565;28;20047;-71
2021/01/21 04:05:00;;;;;;;5.40;2.30;;;8.90;64.10;;;;;;5111414;28;20379;-72
2021/01/21 04:07:26;;;;;;;6.30;2.17;;;8.90;64.20;;;;;;5109452;28;20516;-71
2021/01/21 04:09:52;;;;;;;4.20;2.28;;;9.00;64.20;;;;;;5106815;28;20069;-71
2021/01/21 04:12:18;;;;;;;4.13;2.10;;;9.00;64.30;;;;;;5099759;28;20044;-71
2021/01/21 04:14:45;;;;;;;3.65;2.10;;;9.00;64.20;;;;;;5108273;28;20126;-71
2021/01/21 04:17:11;;;;;;;3.13;2.10;;;9.00;64.30;;;;;;5104265;28;20098;-70
2021/01/21 04:19:37;;;;;;;4.25;2.15;;;8.90;64.30;;;;;;5109793;28;20397;-70
2021/01/21 04:22:04;;;;;;;3.58;1.92;;;8.80;64.20;;;;;;5109392;28;20044;-70
2021/01/21 04:24:30;;;;;;;4.18;2.10;;;8.80;64.50;;;;;;5109718;27;20852;-71
2021/01/21 04:26:56;;;;;;;5.07;2.28;;;8.80;64.70;;;;;;5112890;27;20075;-71
2021/01/21 04:29:23;;;;;;;3.63;2.17;;;8.80;64.50;;;;;;5109070;28;20128;-71
2021/01/21 04:31:49;;;;;;;4.93;2.20;;;8.80;64.60;;;;;;5109399;28;20067;-71
2021/01/21 04:34:15;;;;;;;3.72;2.03;;;8.80;64.50;;;;;;5107586;28;20056;-70
2021/01/21 04:36:41;;;;;;;5.43;2.50;;;8.90;64.30;;;;;;5109124;28;20494;-71
2021/01/21 04:39:08;;;;;;;2.55;1.83;;;8.90;64.40;;;;;;5106789;28;20055;-70
2021/01/21 04:41:34;;;;;;;3.83;2.08;;;8.90;64.10;;;;;;5109772;28;20149;-70
2021/01/21 04:44:01;;;;;;;5.95;2.08;;;8.90;64.20;;;;;;5108997;28;20052;-70
2021/01/21 04:46:29;;;;;;;6.13;2.20;;;8.90;64.00;;;;;;5107157;28;20040;-70
2021/01/21 04:48:56;;;;;;;5.10;2.28;;;8.90;64.30;;;;;;5111067;27;20066;-71
2021/01/21 04:51:24;;;;;;;4.72;2.22;;;9.00;64.70;;;;;;5110026;28;20082;-70
2021/01/21 04:53:57;;;;;;;4.60;2.15;;;8.90;63.90;;;;;;5104677;28;20075;-70
2021/01/21 04:56:44;;;;;;;3.47;1.88;;;8.90;64.50;;;;;;5108225;28;20071;-70
2021/01/21 04:59:16;;;;;;;4.78;1.63;;;9.00;64.00;;;;;;5107577;28;20132;-70
2021/01/21 05:01:42;;;;;;;4.40;2.20;;;9.10;63.60;;;;;;5109762;28;20112;-71
2021/01/21 05:04:10;;;;;;;4.82;2.05;;;9.00;63.70;;;;;;5109999;28;20044;-71
2021/01/21 05:06:36;;;;;;;4.95;2.03;;;8.90;63.90;;;;;;5108677;28;20474;-71
2021/01/21 05:09:03;;;;;;;4.10;2.42;;;8.90;64.40;;;;;;5105733;28;20043;-70
2021/01/21 05:11:29;;;;;;;2.05;1.30;;;8.90;64.50;;;;;;5107564;28;20055;-70
2021/01/21 05:13:56;;;;;;;3.97;2.38;;;8.90;64.50;;;;;;5107623;28;20039;-71
2021/01/21 05:16:23;;;;;;;3.63;2.13;;;8.90;64.70;;;;;;5106097;28;20079;-70
2021/01/21 05:18:50;;;;;;;5.32;2.40;;;8.80;64.70;;;;;;5109132;28;20087;-70
2021/01/21 05:21:17;;;;;;;4.53;2.33;;;8.80;65.20;;;;;;5104782;28;20683;-70
2021/01/21 05:23:44;;;;;;;4.53;1.95;;;8.80;65.00;;;;;;5109607;28;20044;-70
2021/01/21 05:26:11;;;;;;;6.03;2.00;;;8.80;65.10;;;;;;5107460;28;20097;-71
2021/01/21 05:28:38;;;;;;;3.80;1.77;;;8.80;65.10;;;;;;5108698;28;20483;-71
2021/01/21 05:31:04;;;;;;;3.40;2.00;;;8.80;65.10;;;;;;5108624;28;20044;-70
2021/01/21 05:33:34;;;;;;;2.88;2.10;;;8.80;64.80;;;;;;5108529;28;20058;-71
2021/01/21 05:36:01;;;;;;;5.43;1.92;;;9.00;64.60;;;;;;5108010;28;20482;-72
2021/01/21 05:38:30;;;;;;;2.95;1.77;;;9.00;64.80;;;;;;5104487;28;20097;-70
2021/01/21 05:40:58;;;;;;;4.88;2.20;;;8.90;65.40;;;;;;5109456;28;20052;-70
2021/01/21 05:43:26;;;;;;;3.97;2.05;;;9.00;64.80;;;;;;5110135;28;20410;-70
2021/01/21 05:45:52;;;;;;;4.28;1.75;;;9.00;64.40;;;;;;5107442;28;20050;-71
2021/01/21 05:48:19;;;;;;;3.72;2.05;;;9.00;64.40;;;;;;5104011;28;20048;-70
2021/01/21 05:50:46;;;;;;;5.18;2.38;;;9.10;64.40;;;;;;5111279;27;20108;-70
2021/01/21 05:53:13;;;;;;;6.38;2.05;;;9.10;64.30;;;;;;5106129;28;20052;-70
2021/01/21 05:55:40;;;;;;;6.32;2.28;;;9.10;64.30;;;;;;5106901;28;20098;-70
2021/01/21 05:58:06;;;;;;;3.13;1.95;;;9.10;64.30;;;;;;5111247;28;20046;-71
2021/01/21 06:00:33;;;;;;;5.20;2.10;;;9.20;64.30;;;;;;5100458;28;20098;-71
2021/01/21 06:03:00;;;;;;;3.38;1.92;;;9.20;64.00;;;;;;5108634;28;20058;-70
2021/01/21 06:05:28;;;;;;;3.28;1.90;;;9.20;64.30;;;;;;5108799;28;20039;-70
2021/01/21 06:07:54;;;;;;;3.38;1.42;;;9.20;64.30;;;;;;5106902;28;20084;-71
2021/01/21 06:10:22;;;;;;;3.85;2.00;;;9.30;64.20;;;;;;5109208;28;20052;-70
2021/01/21 06:12:53;;;;;;;7.93;2.25;;;9.30;64.10;;;;;;5107614;28;20050;-71
2021/01/21 06:15:20;;;;;;;3.42;1.80;;;9.30;64.20;;;;;;5106632;28;20479;-70
2021/01/21 06:17:49;;;;;;;3.80;1.63;;;9.20;64.30;;;;;;5109924;28;20055;-71
2021/01/21 06:20:17;;;;;;;2.85;1.60;;;9.30;64.30;;;;;;5104429;28;20059;-70
2021/01/21 06:22:47;;;;;;;4.20;1.80;;;9.30;64.10;;;;;;5100072;28;20047;-71
2021/01/21 06:25:16;;;;;;;3.63;1.83;;;9.30;64.10;;;;;;5105272;28;20048;-71
2021/01/21 06:27:44;;;;;;;2.03;1.30;;;9.40;64.40;;;;;;5106916;28;20676;-71
2021/01/21 06:30:19;;;;;;;2.17;1.33;;;9.40;64.30;;;;;;5106666;28;20051;-72
2021/01/21 06:33:04;;;;;;;4.35;1.52;;;9.40;64.30;;;;;;5101222;28;20540;-71
2021/01/21 06:35:38;;;;;;;3.78;1.50;;;9.50;64.30;;;;;;5103287;28;20046;-70
2021/01/21 06:38:13;;;;;;;5.88;1.60;;;9.50;64.00;;;;;;5101076;28;20466;-70
2021/01/21 06:40:43;;;;;;;2.30;1.17;;;9.60;64.10;;;;;;5108125;28;20075;-70
2021/01/21 06:43:28;;;;;;;;;;;9.70;64.00;;;;;;5107456;28;20379;-71
2021/01/21 06:45:58;;;;;;;4.10;1.42;;;9.80;63.60;;;;;;5106285;28;19963;-71
2021/01/21 06:48:25;;;;;;;2.75;1.10;;;9.90;63.50;;;;;;5110315;28;20380;-71
2021/01/21 06:50:52;;;;;;;6.13;1.08;;;9.80;63.70;;;;;;5105925;28;20088;-71
2021/01/21 06:53:19;;;;;;;2.67;1.02;;;10.10;62.50;;;;;;5103762;28;20525;-71
2021/01/21 06:55:51;;;;;;;1.63;0.70;;;10.10;62.20;;;;;;5106152;28;20154;-70
2021/01/21 06:58:52;;;;;;;3.78;1.02;;;10.40;61.90;;;;;;5100732;28;20490;-70
2021/01/21 07:01:30;;;;;;;3.85;1.00;;;10.60;61.90;;;;;;5101515;28;20048;-71
2021/01/21 07:04:03;;;;;;;1.38;0.70;;;10.60;62.60;;;;;;5108858;28;20043;-71
2021/01/21 07:07:12;;;;;;;2.60;0.80;;;10.60;62.40;;;;;;5106280;28;20440;-71
2021/01/21 07:09:40;;;;;;;1.40;0.77;;;10.30;64.90;;;;;;5047906;28;20045;-70
2021/01/21 07:12:13;;;;;;;2.72;0.88;;;10.30;64.70;;;;;;5052668;28;20045;-70
2021/01/21 07:14:40;;;;;;;5.03;0.82;;;10.40;66.10;;;;;;5085684;28;20167;-71
2021/01/21 07:17:07;;;;;;;2.13;0.90;;;10.70;65.30;;;;;;5102199;28;20044;-70
2021/01/21 07:19:37;;;;;;;2.58;0.70;;;10.90;64.90;;;;;;5111096;28;20526;-70
2021/01/21 07:22:17;;;;;;;1.58;0.80;;;10.70;66.10;;;;;;5105890;27;20104;-71
2021/01/21 07:24:54;;;;;;;4.75;0.93;;;10.90;66.00;;;;;;5110317;28;20059;-70
2021/01/21 07:27:22;;;;;;;2.25;0.88;;;10.90;65.80;;;;;;5112649;28;20048;-71
2021/01/21 07:29:49;;;;;;;1.33;0.82;;;10.80;66.10;;;;;;5109922;28;20039;-71
2021/01/21 07:32:26;;;;;;;1.80;0.90;;;10.70;66.80;;;;;;5109717;28;20450;-71
2021/01/21 07:34:53;;;;;;;2.20;1.10;;;10.70;67.10;;;;;;5107557;28;20040;-71
2021/01/21 07:37:22;;;;;;;2.13;0.98;;;10.80;66.90;;;;;;5108331;28;20683;-71
2021/01/21 07:39:57;;;;;;;0.80;0.70;;;10.70;66.90;;;;;;5112097;28;20081;-70
2021/01/21 07:42:33;;;;;;;3.00;1.10;;;10.70;67.40;;;;;;5109756;28;20142;-70
2021/01/21 07:45:20;;;;;;;1.77;0.82;;;10.70;67.30;;;;;;5101795;28;20509;-70
2021/01/21 07:47:48;;;;;;;3.60;0.82;;;10.60;67.40;;;;;;5108957;28;20450;-71
2021/01/21 07:50:29;;;;;;;2.60;1.02;;;10.60;68.00;;;;;;5111102;28;20364;-71
2021/01/21 07:52:58;;;;;;;0.80;0.75;;;10.60;68.00;;;;;;5106863;27;20056;-71
2021/01/21 07:55:35;;;;;;;1.67;0.80;;;10.70;68.20;;;;;;5113513;28;20052;-70
2021/01/21 07:58:16;;;;;;;2.00;0.70;;;10.60;68.20;;;;;;5108081;28;20502;-70
2021/01/21 08:00:43;;;;;;;1.02;0.73;;;10.70;68.50;;;;;;5107833;28;20039;-70
2021/01/21 08:03:10;;;;;;;4.85;0.77;;;10.80;68.50;;;;;;5109380;28;20516;-70
2021/01/21 08:05:36;;;;;;;1.88;0.85;;;10.70;68.80;;;;;;5109616;28;20139;-71
2021/01/21 08:08:03;;;;;;;1.25;0.90;;;10.70;69.00;;;;;;5109573;28;20118;-72
2021/01/21 08:10:35;;;;;;;0.93;0.70;;;10.80;69.00;;;;;;5110887;28;20355;-72
2021/01/21 08:13:06;;;;;;;1.38;0.85;;;10.80;69.30;;;;;;5108974;28;20534;-72
2021/01/21 08:15:35;;;;;;;1.23;0.70;;;10.80;69.90;;;;;;5108205;28;20162;-72
2021/01/21 08:18:02;;;;;;;1.40;0.80;;;10.80;69.70;;;;;;5109545;28;20040;-71
2021/01/21 08:20:32;;;;;;;1.35;0.70;;;10.90;70.00;;;;;;5109608;28;20100;-72
2021/01/21 08:23:05;;;;;;;1.95;0.70;;;10.90;70.40;;;;;;5103007;28;20433;-71
2021/01/21 08:25:39;;;;;;;1.10;0.88;;;11.10;70.10;;;;;;5107711;28;20160;-71
2021/01/21 08:28:05;;;;;;;2.22;1.08;;;11.20;70.20;;;;;;5109727;28;20043;-71
2021/01/21 08:30:32;;;;;;;0.88;0.68;;;11.30;70.40;;;;;;5108815;28;20048;-71
2021/01/21 08:33:03;;;;;;;1.77;0.73;;;11.40;70.40;;;;;;5109716;28;20055;-70
2021/01/21 08:35:35;;;;;;;0.80;0.60;;;11.60;70.20;;;;;;5109251;28;20047;-70
2021/01/21 08:38:23;;;;;;;1.55;0.60;;;11.70;70.00;;;;;;5106158;28;20074;-70
2021/01/21 08:40:51;;;;;;;0.82;0.50;;;11.90;70.00;;;;;;5104978;27;20072;-71
2021/01/21 08:43:23;;;;;;;3.03;0.68;;;12.00;69.80;;;;;;5110245;28;20088;-70
2021/01/21 08:45:51;;;;;;;1.02;0.60;;;12.10;69.70;;;;;;5104938;28;20447;-72
2021/01/21 08:48:28;;;;;;;3.25;0.55;;;12.10;70.20;;;;;;5107016;28;20052;-70
2021/01/21 08:50:55;;;;;;;1.10;0.60;;;12.20;69.80;;;;;;5108672;28;20108;-71
2021/01/21 08:53:23;;;;;;;2.95;0.70;;;12.30;69.80;;;;;;5112812;28;20139;-73
2021/01/21 08:55:51;;;;;;;3.70;0.65;;;12.30;69.80;;;;;;5105777;28;20109;-71
2021/01/21 08:58:20;;;;;;;0.98;0.70;;;12.20;70.50;;;;;;5103025;28;21564;-73
2021/01/21 09:01:00;;;;;;;1.00;0.80;;;12.00;72.50;;;;;;5105341;28;20052;-73
2021/01/21 09:03:47;;;;;;;2.13;0.88;;;11.90;73.50;;;;;;5107081;28;20039;-72
2021/01/21 09:06:16;;;;;;;2.10;0.90;;;11.80;75.30;;;;;;5104356;28;20550;-72
2021/01/21 09:08:45;;;;;;;4.75;0.88;;;11.80;74.60;;;;;;5109018;28;20051;-73
2021/01/21 09:11:37;;;;;;;3.13;0.73;;;11.80;76.60;;;;;;5103749;27;20056;-73
2021/01/21 09:14:05;;;;;;;3.00;0.80;;;11.60;75.80;;;;;;5097707;28;20044;-72
2021/01/21 09:16:52;;;;;;;4.32;0.90;;;11.60;76.70;;;;;;5110066;28;20113;-70
2021/01/21 09:19:27;;;;;;;2.88;0.80;;;11.50;79.30;;;;;;5107330;28;20059;-70
2021/01/21 09:22:02;;;;;;;1.75;1.00;;;11.50;79.70;;;;;;5108513;28;20051;-72
2021/01/21 09:24:29;;;;;;;1.00;0.80;;;11.30;79.80;;;;;;5103984;28;20199;-72
2021/01/21 09:27:07;;;;;;;2.50;0.80;;;11.30;80.40;;;;;;5104483;28;20043;-71
2021/01/21 09:29:55;;;;;;;1.27;0.90;;;11.20;82.70;;;;;;5100046;28;20075;-73
2021/01/21 09:32:24;;;;;;;1.60;0.77;;;11.20;83.70;;;;;;5101612;28;20035;-71
2021/01/21 09:34:59;;;;;;;6.35;0.90;;;11.20;84.50;;;;;;5104747;28;20040;-71
2021/01/21 09:37:28;;;;;;;3.72;0.82;;;11.10;85.00;;;;;;5103473;28;20047;-75
2021/01/21 09:39:54;;;;;;;2.28;0.80;;;11.20;85.40;;;;;;5103177;28;20432;-71
2021/01/21 09:42:21;;;;;;;8.40;1.00;;;11.10;86.40;;;;;;5105141;28;20083;-71
2021/01/21 09:44:47;;;;;;;2.55;0.80;;;11.10;86.20;;;;;;5109063;28;20109;-71
2021/01/21 09:47:14;;;;;;;5.05;1.10;;;11.10;87.50;;;;;;5107232;28;20069;-71
2021/01/21 09:49:42;;;;;;;1.40;0.82;;;11.20;87.40;;;;;;5097537;28;20048;-71
2021/01/21 09:52:08;;;;;;;2.75;1.00;;;11.20;87.60;;;;;;5108523;28;20044;-72
2021/01/21 09:54:35;;;;;;;3.33;1.20;;;11.20;87.50;;;;;;5104678;27;20051;-69
2021/01/21 09:57:02;;;;;;;1.98;0.90;;;11.30;86.40;;;;;;5109747;28;20160;-71
2021/01/21 09:59:28;;;;;;;1.88;1.15;;;11.20;86.70;;;;;;5108078;28;20493;-69
2021/01/21 10:01:54;;;;;;;1.48;0.95;;;11.20;87.30;;;;;;5105679;28;20083;-69
2021/01/21 10:04:21;;;;;;;2.40;1.10;;;11.00;88.30;;;;;;5105283;28;20071;-70
2021/01/21 10:06:47;;;;;;;2.25;1.00;;;11.00;89.30;;;;;;5103866;28;20092;-70
2021/01/21 10:09:14;;;;;;;1.63;1.20;;;11.00;88.90;;;;;;5098650;28;20097;-74
2021/01/21 10:11:40;;;;;;;3.58;1.00;;;11.20;88.70;;;;;;5103232;28;20112;-71
2021/01/21 10:14:07;;;;;;;1.27;0.80;;;11.30;88.70;;;;;;5104977;28;20519;-71
2021/01/21 10:16:34;;;;;;;1.63;0.98;;;11.40;87.80;;;;;;5104168;27;20056;-73
2021/01/21 10:19:01;;;;;;;3.20;0.80;;;11.40;87.80;;;;;;5100653;28;20139;-73
2021/01/21 10:21:28;;;;;;;1.85;1.10;;;11.50;87.80;;;;;;5108292;28;20470;-72
2021/01/21 10:23:59;;;;;;;;;;;11.50;87.90;;;;;;5107976;28;20508;-80
2021/01/21 10:26:25;;;;;;;2.80;1.00;;;11.50;87.60;;;;;;5101582;28;19971;-75
2021/01/21 10:28:52;;;;;;;3.38;1.45;;;11.50;87.70;;;;;;5105443;28;20092;-74
2021/01/21 10:31:18;;;;;;;2.83;1.00;;;11.40;88.40;;;;;;5106820;28;20158;-74
2021/01/21 10:33:44;;;;;;;3.47;0.90;;;11.50;88.20;;;;;;5110799;28;20093;-74
2021/01/21 10:36:11;;;;;;;8.15;1.02;;;11.40;88.40;;;;;;5112026;28;20048;-74
2021/01/21 10:38:39;;;;;;;3.80;1.13;;;11.40;88.70;;;;;;5105952;28;20131;-74
2021/01/21 10:41:06;;;;;;;2.50;1.27;;;11.40;89.00;;;;;;5103024;28;20056;-74
2021/01/21 10:43:36;;;;;;;2.40;1.00;;;11.40;89.20;;;;;;5112481;28;20051;-74
2021/01/21 10:46:03;;;;;;;2.63;0.93;;;11.30;89.30;;;;;;5111053;28;20048;-74
2021/01/21 10:48:30;;;;;;;1.17;1.00;;;11.30;89.70;;;;;;5113511;28;20093;-73
2021/01/21 10:50:56;;;;;;;2.60;1.00;;;11.30;89.80;;;;;;5097415;28;20059;-73
2021/01/21 10:53:23;;;;;;;1.20;0.90;;;11.40;90.00;;;;;;5102700;28;20079;-74
2021/01/21 10:55:49;;;;;;;3.28;1.27;;;11.40;90.10;;;;;;5106416;27;20052;-74
2021/01/21 10:58:15;;;;;;;1.38;0.80;;;11.30;90.30;;;;;;5110376;28;20079;-74
2021/01/21 11:00:44;;;;;;;1.02;0.90;;;11.20;90.60;;;;;;5112332;28;20139;-75
2021/01/21 11:03:11;;;;;;;4.22;0.88;;;11.10;91.50;;;;;;5107795;28;20380;-74
2021/01/21 11:05:39;;;;;;;3.35;1.00;;;11.10;91.80;;;;;;5111511;28;20048;-74
2021/01/21 11:08:05;;;;;;;1.20;0.98;;;11.10;92.40;;;;;;5108024;28;20086;-74
2021/01/21 11:10:32;;;;;;;2.78;0.90;;;11.00;93.30;;;;;;5112206;28;20075;-74
2021/01/21 11:12:59;;;;;;;1.48;0.90;;;10.90;94.10;;;;;;5111330;28;20039;-74
2021/01/21 11:15:25;;;;;;;2.00;1.10;;;10.90;95.10;;;;;;5112668;28;20048;-73
2021/01/21 11:17:52;;;;;;;4.10;1.10;;;10.80;95.80;;;;;;5111224;28;20075;-74
2021/01/21 11:20:18;;;;;;;1.60;1.10;;;10.70;96.40;;;;;;5112760;28;20043;-74
2021/01/21 11:22:45;;;;;;;7.05;1.50;;;10.60;97.50;;;;;;5113935;28;20044;-74
2021/01/21 11:25:12;;;;;;;3.20;1.40;;;10.40;99.90;;;;;;5108088;27;20082;-75
2021/01/21 11:27:58;;;;;;;3.55;1.13;;;10.20;99.90;;;;;;5111210;28;20506;-73
2021/01/21 11:30:25;;;;;;;3.40;1.13;;;10.00;99.90;;;;;;5111914;28;20555;-74
2021/01/21 11:32:51;;;;;;;2.97;0.70;;;9.90;99.90;;;;;;5106168;28;20044;-73
2021/01/21 11:35:18;;;;;;;1.25;0.85;;;9.90;99.90;;;;;;5113370;28;20052;-74
2021/01/21 11:37:44;;;;;;;1.00;0.80;;;9.90;99.90;;;;;;5112673;28;20052;-74
2021/01/21 11:40:11;;;;;;;3.03;1.08;;;9.80;99.90;;;;;;5110319;28;20126;-74
2021/01/21 11:42:38;;;;;;;4.05;1.55;;;9.90;99.90;;;;;;5113834;28;20179;-73
2021/01/21 11:45:05;;;;;;;1.33;0.90;;;9.90;99.90;;;;;;5110090;28;20438;-75
2021/01/21 11:47:33;;;;;;;2.20;1.05;;;9.90;99.90;;;;;;5109182;28;20517;-73
2021/01/21 11:50:00;;;;;;;1.98;1.10;;;9.90;99.90;;;;;;5113916;28;20054;-73
2021/01/21 11:52:28;;;;;;;1.23;0.88;;;10.00;99.90;;;;;;5110409;28;20160;-74
2021/01/21 11:54:54;;;;;;;1.30;0.75;;;10.00;99.90;;;;;;5109471;28;20112;-74
2021/01/21 11:57:20;;;;;;;0.60;0.60;;;10.10;99.90;;;;;;5114869;28;20044;-74
2021/01/21 12:00:00;;;;;;;1.88;1.10;;;10.00;99.90;;;;;;5110308;28;20443;-74
2021/01/21 12:02:27;;;;;;;1.40;0.82;;;10.10;99.90;;;;;;5109642;28;20080;-73
2021/01/21 12:04:54;;;;;;;1.30;0.80;;;10.10;99.90;;;;;;5111610;28;20043;-73
2021/01/21 12:07:20;;;;;;;1.65;0.85;;;10.00;99.90;;;;;;5110876;28;20096;-74
2021/01/21 12:09:47;;;;;;;2.25;0.85;;;10.10;99.90;;;;;;5111242;28;20048;-75
2021/01/21 12:12:13;;;;;;;0.55;0.50;;;10.10;99.90;;;;;;5110541;28;20478;-73
2021/01/21 12:14:40;;;;;;;1.05;0.57;;;10.00;99.90;;;;;;5109657;28;20047;-74
2021/01/21 12:17:06;;;;;;;1.23;0.65;;;10.00;99.90;;;;;;5112457;28;20086;-74
2021/01/21 12:19:33;;;;;;;0.30;0.30;;;10.10;99.60;;;;;;5112133;28;20126;-73
2021/01/21 12:21:59;;;;;;;0.70;0.30;;;10.00;98.40;;;;;;5110270;28;20047;-74
2021/01/21 12:24:26;;;;;;;2.05;0.82;;;10.00;97.60;;;;;;5098523;28;20102;-73
2021/01/21 12:26:52;;;;;;;1.58;0.50;;;10.00;97.40;;;;;;5107711;28;20047;-74
2021/01/21 12:29:18;;;;;;;1.52;0.50;;;10.00;97.20;;;;;;5103788;28;20068;-73
2021/01/21 12:31:45;;;;;;;1.55;0.30;;;10.00;97.00;;;;;;5108795;27;20075;-73
2021/01/21 12:34:11;;;;;;;0.93;0.38;;;9.90;96.80;;;;;;5103134;28;20044;-74
2021/01/21 12:36:38;;;;;;;1.83;0.52;;;9.80;95.90;;;;;;5114515;28;20113;-73
2021/01/21 12:39:04;;;;;;;1.20;0.35;;;9.80;96.10;;;;;;5106883;28;20079;-74
2021/01/21 12:41:32;;;;;;;1.45;0.60;;;9.80;96.00;;;;;;5100070;28;20083;-73
2021/01/21 12:43:58;;;;;;;1.88;0.60;;;9.70;96.40;;;;;;5114094;28;20055;-73
2021/01/21 12:46:27;;;;;;;3.58;0.50;;;9.60;95.90;;;;;;5107954;28;20213;-74
2021/01/21 12:48:55;;;;;;;2.53;0.60;;;9.60;95.80;;;;;;5112492;28;20043;-73
2021/01/21 12:51:22;;;;;;;1.55;0.70;;;9.70;95.60;;;;;;5110788;28;20096;-75
2021/01/21 12:53:52;;;;;;;0.65;0.43;;;9.60;95.40;;;;;;5108301;28;20101;-73
2021/01/21 12:56:18;;;;;;;2.30;0.55;;;9.60;95.20;;;;;;5110404;28;20094;-74
2021/01/21 12:58:44;;;;;;;2.47;0.70;;;9.60;95.70;;;;;;5108453;28;20048;-73
2021/01/21 13:01:11;;;;;;;3.03;0.70;;;9.70;95.60;;;;;;5109303;28;20075;-73
2021/01/21 13:03:40;;;;;;;5.00;0.77;;;9.60;95.10;;;;;;5108570;28;20048;-73
2021/01/21 13:06:07;;;;;;;3.10;0.80;;;9.70;94.80;;;;;;5106591;28;20071;-73